sensor_id;sensor_type;location;lat;lon;timestamp;P1;durP1;ratioP1;P2;durP2;ratioP2
35304;SDS011;26433;48.034;-1.764;2023-01-26T06:06:56;3.05;;;1.00;;
35304;SDS011;26433;48.034;-1.764;2023-01-26T06:12:04;2.62;;;0.82;;
35304;SDS011;26433;48.034;-1.764;2023-01-26T06:17:10;3.00;;;1.00;;
35304;SDS011;26433;48.034;-1.764;2023-01-26T06:22:15;2.85;;;1.08;;
35304;SDS011;26433;48.034;-1.764;2023-01-26T06:27:19;3.60;;;1.20;;
35304;SDS011;26433;48.034;-1.764;2023-01-26T06:32:25;2.60;;;1.12;;
35304;SDS011;26433;48.034;-1.764;2023-01-26T06:37:29;4.37;;;1.15;;
35304;SDS011;26433;48.034;-1.764;2023-01-26T06:42:33;2.15;;;1.17;;
35304;SDS011;26433;48.034;-1.764;2023-01-26T06:47:38;1.00;;;0.80;;
35304;SDS011;26433;48.034;-1.764;2023-01-26T06:52:47;3.17;;;0.98;;
35304;SDS011;26433;48.034;-1.764;2023-01-26T06:57:55;3.15;;;1.00;;
35304;SDS011;26433;48.034;-1.764;2023-01-26T07:03:01;1.95;;;1.00;;
35304;SDS011;26433;48.034;-1.764;2023-01-26T07:08:05;2.35;;;1.12;;
35304;SDS011;26433;48.034;-1.764;2023-01-26T07:13:09;2.08;;;0.80;;
35304;SDS011;26433;48.034;-1.764;2023-01-26T07:18:14;3.43;;;0.87;;
35304;SDS011;26433;48.034;-1.764;2023-01-26T07:23:18;1.87;;;0.90;;
35304;SDS011;26433;48.034;-1.764;2023-01-26T07:28:22;2.00;;;1.00;;
35304;SDS011;26433;48.034;-1.764;2023-01-26T07:38:32;1.90;;;0.82;;
35304;SDS011;26433;48.034;-1.764;2023-01-26T07:43:37;1.10;;;0.70;;
35304;SDS011;26433;48.034;-1.764;2023-01-26T07:48:43;1.25;;;0.60;;
35304;SDS011;26433;48.034;-1.764;2023-01-26T07:53:47;0.98;;;0.50;;
35304;SDS011;26433;48.034;-1.764;2023-01-26T07:58:51;0.95;;;0.20;;
35304;SDS011;26433;48.034;-1.764;2023-01-26T08:09:00;0.70;;;0.35;;
35304;SDS011;26433;48.034;-1.764;2023-01-26T08:14:04;0.40;;;0.40;;
35304;SDS011;26433;48.034;-1.764;2023-01-26T08:19:09;0.70;;;0.30;;
35304;SDS011;26433;48.034;-1.764;2023-01-26T08:24:13;0.32;;;0.32;;
35304;SDS011;26433;48.034;-1.764;2023-01-26T08:29:17;0.98;;;0.40;;
35304;SDS011;26433;48.034;-1.764;2023-01-26T08:39:27;5.00;;;0.50;;
35304;SDS011;26433;48.034;-1.764;2023-01-26T08:44:31;0.40;;;0.30;;
35304;SDS011;26433;48.034;-1.764;2023-01-26T08:49:36;1.42;;;0.30;;
35304;SDS011;26433;48.034;-1.764;2023-01-26T08:54:40;1.52;;;0.32;;
35304;SDS011;26433;48.034;-1.764;2023-01-26T08:59:44;0.20;;;0.20;;
35304;SDS011;26433;48.034;-1.764;2023-01-26T09:04:49;2.85;;;0.57;;
35304;SDS011;26433;48.034;-1.764;2023-01-26T09:09:53;3.58;;;0.70;;
35304;SDS011;26433;48.034;-1.764;2023-01-26T09:14:57;1.25;;;0.57;;
35304;SDS011;26433;48.034;-1.764;2023-01-26T09:20:02;0.60;;;0.40;;
35304;SDS011;26433;48.034;-1.764;2023-01-26T09:25:07;0.25;;;0.20;;
35304;SDS011;26433;48.034;-1.764;2023-01-26T09:30:12;1.85;;;0.37;;
35304;SDS011;26433;48.034;-1.764;2023-01-26T09:35:18;1.10;;;0.30;;
35304;SDS011;26433;48.034;-1.764;2023-01-26T09:40:22;0.40;;;0.30;;
35304;SDS011;26433;48.034;-1.764;2023-01-26T09:45:42;1.58;;;0.30;;
35304;SDS011;26433;48.034;-1.764;2023-01-26T09:50:53;0.88;;;0.20;;
35304;SDS011;26433;48.034;-1.764;2023-01-26T09:55:59;4.57;;;0.37;;
35304;SDS011;26433;48.034;-1.764;2023-01-26T10:01:03;0.65;;;0.20;;
35304;SDS011;26433;48.034;-1.764;2023-01-26T10:06:20;0.25;;;0.20;;
35304;SDS011;26433;48.034;-1.764;2023-01-26T10:11:35;0.30;;;0.10;;
35304;SDS011;26433;48.034;-1.764;2023-01-26T10:16:42;3.55;;;0.40;;
35304;SDS011;26433;48.034;-1.764;2023-01-26T10:21:51;1.83;;;0.28;;
35304;SDS011;26433;48.034;-1.764;2023-01-26T10:26:56;2.47;;;0.20;;
35304;SDS011;26433;48.034;-1.764;2023-01-26T10:32:00;2.30;;;0.30;;
35304;SDS011;26433;48.034;-1.764;2023-01-26T10:37:11;1.45;;;0.20;;
35304;SDS011;26433;48.034;-1.764;2023-01-26T10:42:21;1.67;;;0.20;;
35304;SDS011;26433;48.034;-1.764;2023-01-26T10:47:25;1.02;;;0.35;;
35304;SDS011;26433;48.034;-1.764;2023-01-26T10:52:30;0.32;;;0.20;;
35304;SDS011;26433;48.034;-1.764;2023-01-26T10:57:36;0.55;;;0.55;;
35304;SDS011;26433;48.034;-1.764;2023-01-26T11:02:40;2.28;;;0.40;;
35304;SDS011;26433;48.034;-1.764;2023-01-26T11:07:54;0.52;;;0.10;;
35304;SDS011;26433;48.034;-1.764;2023-01-26T11:18:29;2.12;;;0.30;;
35304;SDS011;26433;48.034;-1.764;2023-01-26T11:23:50;3.78;;;0.35;;
35304;SDS011;26433;48.034;-1.764;2023-01-26T11:29:06;3.33;;;0.47;;
35304;SDS011;26433;48.034;-1.764;2023-01-26T11:34:23;3.92;;;0.75;;
35304;SDS011;26433;48.034;-1.764;2023-01-26T11:39:38;3.60;;;0.30;;
35304;SDS011;26433;48.034;-1.764;2023-01-26T11:44:57;5.68;;;0.35;;
35304;SDS011;26433;48.034;-1.764;2023-01-26T11:50:22;1.05;;;0.25;;
35304;SDS011;26433;48.034;-1.764;2023-01-26T11:55:36;0.55;;;0.20;;
35304;SDS011;26433;48.034;-1.764;2023-01-26T12:00:50;0.80;;;0.35;;
35304;SDS011;26433;48.034;-1.764;2023-01-26T12:05:57;1.10;;;0.20;;
35304;SDS011;26433;48.034;-1.764;2023-01-26T12:11:08;0.65;;;0.30;;
35304;SDS011;26433;48.034;-1.764;2023-01-26T12:16:29;5.87;;;0.50;;
35304;SDS011;26433;48.034;-1.764;2023-01-26T12:21:37;1.40;;;0.40;;
35304;SDS011;26433;48.034;-1.764;2023-01-26T12:26:48;0.50;;;0.40;;
35304;SDS011;26433;48.034;-1.764;2023-01-26T12:31:55;0.75;;;0.40;;
35304;SDS011;26433;48.034;-1.764;2023-01-26T12:37:09;0.55;;;0.45;;
35304;SDS011;26433;48.034;-1.764;2023-01-26T12:42:27;0.95;;;0.30;;
35304;SDS011;26433;48.034;-1.764;2023-01-26T12:47:41;3.70;;;0.65;;
35304;SDS011;26433;48.034;-1.764;2023-01-26T12:52:50;0.30;;;0.30;;
35304;SDS011;26433;48.034;-1.764;2023-01-26T12:58:01;0.98;;;0.32;;
35304;SDS011;26433;48.034;-1.764;2023-01-26T13:03:12;5.37;;;0.30;;
35304;SDS011;26433;48.034;-1.764;2023-01-26T13:13:56;3.42;;;0.40;;
35304;SDS011;26433;48.034;-1.764;2023-01-26T13:19:00;1.60;;;0.35;;
35304;SDS011;26433;48.034;-1.764;2023-01-26T13:24:12;3.70;;;0.60;;
35304;SDS011;26433;48.034;-1.764;2023-01-26T13:29:52;1.12;;;0.40;;
35304;SDS011;26433;48.034;-1.764;2023-01-26T13:34:56;0.37;;;0.35;;
35304;SDS011;26433;48.034;-1.764;2023-01-26T13:40:12;3.85;;;0.82;;
35304;SDS011;26433;48.034;-1.764;2023-01-26T13:45:22;1.85;;;0.62;;
35304;SDS011;26433;48.034;-1.764;2023-01-26T13:50:34;1.50;;;0.50;;
35304;SDS011;26433;48.034;-1.764;2023-01-26T13:55:39;2.33;;;0.45;;
35304;SDS011;26433;48.034;-1.764;2023-01-26T14:00:57;3.10;;;0.32;;
35304;SDS011;26433;48.034;-1.764;2023-01-26T14:06:02;2.60;;;0.60;;
35304;SDS011;26433;48.034;-1.764;2023-01-26T14:11:15;1.55;;;0.10;;
35304;SDS011;26433;48.034;-1.764;2023-01-26T14:16:25;5.45;;;0.47;;
35304;SDS011;26433;48.034;-1.764;2023-01-26T14:21:32;0.52;;;0.20;;
35304;SDS011;26433;48.034;-1.764;2023-01-26T14:26:48;1.87;;;0.32;;
35304;SDS011;26433;48.034;-1.764;2023-01-26T14:31:55;1.00;;;0.30;;
35304;SDS011;26433;48.034;-1.764;2023-01-26T14:37:04;0.40;;;0.22;;
35304;SDS011;26433;48.034;-1.764;2023-01-26T14:42:09;3.58;;;0.50;;
35304;SDS011;26433;48.034;-1.764;2023-01-26T14:47:18;3.00;;;0.43;;
35304;SDS011;26433;48.034;-1.764;2023-01-26T14:52:25;0.30;;;0.20;;
35304;SDS011;26433;48.034;-1.764;2023-01-26T14:57:31;1.77;;;0.32;;
35304;SDS011;26433;48.034;-1.764;2023-01-26T15:02:37;5.60;;;0.30;;
35304;SDS011;26433;48.034;-1.764;2023-01-26T15:07:47;3.03;;;1.10;;
35304;SDS011;26433;48.034;-1.764;2023-01-26T15:12:56;3.62;;;0.30;;
35304;SDS011;26433;48.034;-1.764;2023-01-26T15:18:03;0.40;;;0.20;;
35304;SDS011;26433;48.034;-1.764;2023-01-26T15:23:22;0.15;;;0.15;;
35304;SDS011;26433;48.034;-1.764;2023-01-26T15:28:28;0.45;;;0.28;;
35304;SDS011;26433;48.034;-1.764;2023-01-26T15:38:58;2.15;;;0.40;;
35304;SDS011;26433;48.034;-1.764;2023-01-26T15:44:03;3.03;;;0.40;;
35304;SDS011;26433;48.034;-1.764;2023-01-26T15:49:08;2.77;;;0.50;;
35304;SDS011;26433;48.034;-1.764;2023-01-26T15:54:12;2.17;;;0.40;;
35304;SDS011;26433;48.034;-1.764;2023-01-26T15:59:15;0.20;;;0.20;;
35304;SDS011;26433;48.034;-1.764;2023-01-26T16:04:20;1.20;;;0.57;;
35304;SDS011;26433;48.034;-1.764;2023-01-26T16:09:26;0.95;;;0.55;;
35304;SDS011;26433;48.034;-1.764;2023-01-26T16:14:29;1.23;;;0.33;;
35304;SDS011;26433;48.034;-1.764;2023-01-26T16:19:34;1.30;;;0.33;;
35304;SDS011;26433;48.034;-1.764;2023-01-26T16:24:38;0.77;;;0.40;;
35304;SDS011;26433;48.034;-1.764;2023-01-26T16:29:42;0.30;;;0.30;;
35304;SDS011;26433;48.034;-1.764;2023-01-26T16:34:47;2.17;;;0.40;;
35304;SDS011;26433;48.034;-1.764;2023-01-26T16:39:50;1.05;;;0.40;;
35304;SDS011;26433;48.034;-1.764;2023-01-26T16:44:54;3.50;;;0.37;;
35304;SDS011;26433;48.034;-1.764;2023-01-26T16:50:00;2.00;;;0.25;;
35304;SDS011;26433;48.034;-1.764;2023-01-26T16:55:04;4.28;;;0.82;;
35304;SDS011;26433;48.034;-1.764;2023-01-26T17:00:14;3.58;;;0.40;;
35304;SDS011;26433;48.034;-1.764;2023-01-26T17:05:20;2.22;;;0.40;;
35304;SDS011;26433;48.034;-1.764;2023-01-26T17:10:24;0.37;;;0.37;;
35304;SDS011;26433;48.034;-1.764;2023-01-26T17:15:28;0.50;;;0.50;;
35304;SDS011;26433;48.034;-1.764;2023-01-26T17:25:37;1.45;;;0.22;;
35304;SDS011;26433;48.034;-1.764;2023-01-26T17:30:41;3.13;;;0.80;;
35304;SDS011;26433;48.034;-1.764;2023-01-26T17:35:46;5.93;;;0.52;;
35304;SDS011;26433;48.034;-1.764;2023-01-26T17:40:52;1.10;;;0.50;;
35304;SDS011;26433;48.034;-1.764;2023-01-26T17:46:00;4.07;;;0.68;;
35304;SDS011;26433;48.034;-1.764;2023-01-26T17:51:07;1.92;;;0.60;;
35304;SDS011;26433;48.034;-1.764;2023-01-26T17:56:12;2.00;;;0.70;;
35304;SDS011;26433;48.034;-1.764;2023-01-26T18:01:17;2.33;;;0.73;;
35304;SDS011;26433;48.034;-1.764;2023-01-26T18:06:23;1.75;;;0.50;;
35304;SDS011;26433;48.034;-1.764;2023-01-26T18:11:26;3.12;;;0.62;;
35304;SDS011;26433;48.034;-1.764;2023-01-26T18:16:30;2.92;;;0.60;;
35304;SDS011;26433;48.034;-1.764;2023-01-26T18:21:36;2.53;;;0.50;;
35304;SDS011;26433;48.034;-1.764;2023-01-26T18:26:40;0.50;;;0.35;;
35304;SDS011;26433;48.034;-1.764;2023-01-26T18:31:43;0.57;;;0.30;;
35304;SDS011;26433;48.034;-1.764;2023-01-26T18:36:50;1.20;;;0.80;;
35304;SDS011;26433;48.034;-1.764;2023-01-26T18:41:53;2.53;;;0.88;;
35304;SDS011;26433;48.034;-1.764;2023-01-26T18:46:57;2.50;;;0.50;;
35304;SDS011;26433;48.034;-1.764;2023-01-26T18:52:03;4.40;;;0.43;;
35304;SDS011;26433;48.034;-1.764;2023-01-26T18:57:06;0.77;;;0.62;;
35304;SDS011;26433;48.034;-1.764;2023-01-26T19:02:11;1.55;;;0.75;;
35304;SDS011;26433;48.034;-1.764;2023-01-26T19:07:17;3.78;;;0.60;;
35304;SDS011;26433;48.034;-1.764;2023-01-26T19:12:21;0.95;;;0.55;;
35304;SDS011;26433;48.034;-1.764;2023-01-26T19:17:25;2.30;;;1.00;;
35304;SDS011;26433;48.034;-1.764;2023-01-26T19:22:31;4.62;;;1.00;;
35304;SDS011;26433;48.034;-1.764;2023-01-26T19:27:35;3.83;;;0.75;;
35304;SDS011;26433;48.034;-1.764;2023-01-26T19:32:41;1.98;;;0.93;;
35304;SDS011;26433;48.034;-1.764;2023-01-26T19:38:06;3.35;;;0.77;;
35304;SDS011;26433;48.034;-1.764;2023-01-26T19:43:10;1.42;;;0.57;;
35304;SDS011;26433;48.034;-1.764;2023-01-26T19:48:14;2.27;;;0.60;;
35304;SDS011;26433;48.034;-1.764;2023-01-26T19:53:19;1.65;;;1.00;;
35304;SDS011;26433;48.034;-1.764;2023-01-26T19:58:22;1.33;;;0.90;;
35304;SDS011;26433;48.034;-1.764;2023-01-26T20:03:26;1.12;;;0.80;;
35304;SDS011;26433;48.034;-1.764;2023-01-26T20:08:31;1.23;;;0.73;;
35304;SDS011;26433;48.034;-1.764;2023-01-26T20:13:35;2.35;;;0.50;;
35304;SDS011;26433;48.034;-1.764;2023-01-26T20:18:39;2.05;;;0.77;;
35304;SDS011;26433;48.034;-1.764;2023-01-26T20:23:44;2.00;;;0.73;;
35304;SDS011;26433;48.034;-1.764;2023-01-26T20:28:55;1.37;;;0.70;;
35304;SDS011;26433;48.034;-1.764;2023-01-26T20:33:59;4.12;;;1.02;;
35304;SDS011;26433;48.034;-1.764;2023-01-26T20:39:05;3.83;;;0.85;;
35304;SDS011;26433;48.034;-1.764;2023-01-26T20:44:09;1.40;;;0.60;;
35304;SDS011;26433;48.034;-1.764;2023-01-26T20:49:14;0.65;;;0.62;;
35304;SDS011;26433;48.034;-1.764;2023-01-26T20:54:20;1.12;;;0.60;;
35304;SDS011;26433;48.034;-1.764;2023-01-26T20:59:24;0.37;;;0.37;;
35304;SDS011;26433;48.034;-1.764;2023-01-26T21:04:28;0.37;;;0.30;;
35304;SDS011;26433;48.034;-1.764;2023-01-26T21:09:34;0.47;;;0.40;;
35304;SDS011;26433;48.034;-1.764;2023-01-26T21:14:38;3.65;;;0.60;;
35304;SDS011;26433;48.034;-1.764;2023-01-26T21:19:41;1.37;;;0.63;;
35304;SDS011;26433;48.034;-1.764;2023-01-26T21:24:46;1.00;;;0.43;;
35304;SDS011;26433;48.034;-1.764;2023-01-26T21:29:50;1.37;;;0.50;;
35304;SDS011;26433;48.034;-1.764;2023-01-26T21:34:54;1.70;;;0.57;;
35304;SDS011;26433;48.034;-1.764;2023-01-26T21:39:59;0.40;;;0.35;;
35304;SDS011;26433;48.034;-1.764;2023-01-26T21:45:07;0.77;;;0.37;;
35304;SDS011;26433;48.034;-1.764;2023-01-26T21:50:29;3.03;;;0.70;;
35304;SDS011;26433;48.034;-1.764;2023-01-26T21:55:57;0.98;;;0.35;;
35304;SDS011;26433;48.034;-1.764;2023-01-26T22:01:04;4.93;;;0.40;;
35304;SDS011;26433;48.034;-1.764;2023-01-26T22:06:08;0.85;;;0.55;;
35304;SDS011;26433;48.034;-1.764;2023-01-26T22:11:13;5.47;;;0.67;;
35304;SDS011;26433;48.034;-1.764;2023-01-26T22:16:17;2.03;;;0.50;;
35304;SDS011;26433;48.034;-1.764;2023-01-26T22:21:21;1.00;;;0.27;;
35304;SDS011;26433;48.034;-1.764;2023-01-26T22:26:26;1.30;;;0.40;;
35304;SDS011;26433;48.034;-1.764;2023-01-26T22:31:30;0.98;;;0.52;;
35304;SDS011;26433;48.034;-1.764;2023-01-26T22:36:37;0.43;;;0.40;;
35304;SDS011;26433;48.034;-1.764;2023-01-26T22:41:43;1.80;;;0.35;;
35304;SDS011;26433;48.034;-1.764;2023-01-26T22:46:46;1.73;;;0.43;;
35304;SDS011;26433;48.034;-1.764;2023-01-26T22:51:50;2.27;;;0.90;;
35304;SDS011;26433;48.034;-1.764;2023-01-26T22:56:55;3.13;;;0.27;;
35304;SDS011;26433;48.034;-1.764;2023-01-26T23:01:59;0.82;;;0.30;;
35304;SDS011;26433;48.034;-1.764;2023-01-26T23:07:02;1.60;;;0.33;;
35304;SDS011;26433;48.034;-1.764;2023-01-26T23:12:07;0.83;;;0.37;;
35304;SDS011;26433;48.034;-1.764;2023-01-26T23:17:11;5.57;;;0.55;;
35304;SDS011;26433;48.034;-1.764;2023-01-26T23:22:15;1.03;;;0.37;;
35304;SDS011;26433;48.034;-1.764;2023-01-26T23:27:20;0.85;;;0.40;;
